createdAt,value
2023-05-24T00:19:58.509Z,0.50
2023-05-24T00:20:58.461Z,0.50
2023-05-24T00:21:58.446Z,0.50
2023-05-24T00:22:58.444Z,0.50
2023-05-24T00:23:58.430Z,0.50
2023-05-24T00:24:58.418Z,0.50
2023-05-24T00:25:58.414Z,0.50
2023-05-24T00:26:58.414Z,0.50
2023-05-24T00:27:58.407Z,0.50
2023-05-24T00:28:58.418Z,0.50
2023-05-24T00:29:58.395Z,0.50
2023-05-24T00:30:58.385Z,0.50
2023-05-24T00:31:58.432Z,0.50
2023-05-24T00:32:58.409Z,0.51
2023-05-24T00:33:58.701Z,0.50
2023-05-24T00:34:58.347Z,0.50
2023-05-24T00:35:58.380Z,0.50
2023-05-24T00:36:58.346Z,0.50
2023-05-24T00:37:58.329Z,0.50
2023-05-24T00:38:58.327Z,0.50
2023-05-24T00:39:58.337Z,0.51
2023-05-24T00:40:58.321Z,0.51
2023-05-24T00:41:58.303Z,0.51
2023-05-24T00:42:58.322Z,0.51
2023-05-24T00:43:58.321Z,0.51
2023-05-24T00:44:58.298Z,0.50
2023-05-24T00:45:58.290Z,0.51
2023-05-24T00:46:58.269Z,0.50
2023-05-24T00:47:58.373Z,0.51
2023-05-24T00:48:58.262Z,0.50
2023-05-24T00:49:58.258Z,0.51
2023-05-24T00:50:58.237Z,0.50
2023-05-24T00:51:58.248Z,0.51
2023-05-24T00:52:58.253Z,0.51
2023-05-24T00:53:58.220Z,0.50
2023-05-24T00:54:58.227Z,0.51
2023-05-24T00:55:58.212Z,0.50
2023-05-24T00:56:58.211Z,0.52
2023-05-24T00:57:58.202Z,0.51
2023-05-24T00:58:58.186Z,0.51
2023-05-24T00:59:58.194Z,0.51
2023-05-24T01:00:58.169Z,0.51
2023-05-24T01:01:58.231Z,0.51
2023-05-24T01:02:58.263Z,0.51
2023-05-24T01:03:58.218Z,0.51
2023-05-24T01:04:58.202Z,0.51
2023-05-24T01:05:58.162Z,0.51
2023-05-24T01:06:58.150Z,0.51
2023-05-24T01:07:58.166Z,0.51
2023-05-24T01:08:58.136Z,0.51
2023-05-24T01:09:58.132Z,0.51
2023-05-24T01:10:58.121Z,0.51
2023-05-24T01:11:58.113Z,0.51
2023-05-24T01:12:58.117Z,0.50
2023-05-24T01:13:58.117Z,0.50
2023-05-24T01:14:58.101Z,0.50
2023-05-24T01:15:58.139Z,0.51
2023-05-24T01:16:58.098Z,0.50
2023-05-24T01:17:58.095Z,0.51
2023-05-24T01:18:58.090Z,0.51
2023-05-24T01:19:58.093Z,0.52
2023-05-24T01:20:58.072Z,0.52
2023-05-24T01:21:58.054Z,0.51
2023-05-24T01:22:58.053Z,0.51
2023-05-24T01:23:58.038Z,0.51
2023-05-24T01:24:58.039Z,0.51
2023-05-24T01:25:58.024Z,0.51
2023-05-24T01:26:58.025Z,0.51
2023-05-24T01:27:58.019Z,0.51
2023-05-24T01:28:58.005Z,0.52
2023-05-24T01:29:58.005Z,0.51
2023-05-24T01:30:57.998Z,0.51
2023-05-24T01:31:58.002Z,0.51
2023-05-24T01:32:58.027Z,0.50
2023-05-24T01:33:57.974Z,0.51
2023-05-24T01:34:57.976Z,0.50
2023-05-24T01:35:58.028Z,0.51
2023-05-24T01:36:57.958Z,0.51
2023-05-24T01:37:57.946Z,0.50
2023-05-24T01:38:57.949Z,0.50
2023-05-24T01:39:57.948Z,0.51
2023-05-24T01:40:57.953Z,0.51
2023-05-24T01:41:57.936Z,0.51
2023-05-24T01:42:57.917Z,0.51
2023-05-24T01:43:57.908Z,0.52
2023-05-24T01:44:57.895Z,0.52
2023-05-24T01:45:57.934Z,0.51
2023-05-24T01:46:57.905Z,0.51
2023-05-24T01:47:57.934Z,0.51
2023-05-24T01:48:57.887Z,0.52
2023-05-24T01:49:57.878Z,0.51
2023-05-24T01:50:57.894Z,0.51
2023-05-24T01:51:57.904Z,0.51
2023-05-24T01:52:57.854Z,0.51
2023-05-24T01:53:57.844Z,0.51
2023-05-24T01:54:57.849Z,0.51
2023-05-24T01:55:57.837Z,0.52
2023-05-24T01:56:57.826Z,0.51
2023-05-24T01:57:57.812Z,0.52
2023-05-24T01:58:57.811Z,0.52
2023-05-24T01:59:57.802Z,0.52
2023-05-24T02:00:57.870Z,0.51
2023-05-24T02:01:57.843Z,0.51
2023-05-24T02:02:57.920Z,0.51
2023-05-24T02:03:57.775Z,0.51
2023-05-24T02:04:57.777Z,0.51
2023-05-24T02:05:57.774Z,0.51
2023-05-24T02:06:57.772Z,0.51
2023-05-24T02:07:57.761Z,0.51
2023-05-24T02:08:57.781Z,0.52
2023-05-24T02:09:57.736Z,0.51
2023-05-24T02:10:57.736Z,0.51
2023-05-24T02:11:57.725Z,0.51
2023-05-24T02:12:57.717Z,0.50
2023-05-24T02:13:57.723Z,0.51
2023-05-24T02:14:57.713Z,0.50
2023-05-24T02:15:57.702Z,0.51
2023-05-24T02:16:57.812Z,0.51
2023-05-24T02:17:57.789Z,0.51
2023-05-24T02:18:57.678Z,0.51
2023-05-24T02:19:57.740Z,0.52
2023-05-24T02:20:57.700Z,0.52
2023-05-24T02:21:57.660Z,0.52
2023-05-24T02:22:57.662Z,0.52
2023-05-24T02:23:57.643Z,0.52
2023-05-24T02:24:57.632Z,0.51
2023-05-24T02:25:57.638Z,0.51
2023-05-24T02:26:57.641Z,0.51
2023-05-24T02:27:57.621Z,0.52
2023-05-24T02:28:57.628Z,0.51
2023-05-24T02:29:57.625Z,0.51
2023-05-24T02:30:57.622Z,0.50
2023-05-24T02:31:57.590Z,0.51
2023-05-24T02:32:57.632Z,0.51
2023-05-24T02:33:57.603Z,0.51
2023-05-24T02:34:57.612Z,0.52
2023-05-24T02:35:57.587Z,0.51
2023-05-24T02:36:57.575Z,0.51
2023-05-24T02:37:57.555Z,0.51
2023-05-24T02:38:57.551Z,0.51
2023-05-24T02:39:57.559Z,0.51
2023-05-24T02:40:57.538Z,0.50
2023-05-24T02:41:57.530Z,0.51
2023-05-24T02:42:57.531Z,0.51
2023-05-24T02:43:57.541Z,0.51
2023-05-24T02:44:57.526Z,0.50
2023-05-24T02:45:57.551Z,0.50
2023-05-24T02:46:57.506Z,0.50
2023-05-24T02:47:57.519Z,0.51
2023-05-24T02:48:57.489Z,0.50
2023-05-24T02:49:57.478Z,0.52
2023-05-24T02:50:57.501Z,0.51
2023-05-24T02:51:57.476Z,0.52
2023-05-24T02:52:57.464Z,0.51
2023-05-24T02:53:57.447Z,0.52
2023-05-24T02:54:57.444Z,0.51
2023-05-24T02:55:57.450Z,0.52
2023-05-24T02:56:57.432Z,0.51
2023-05-24T02:57:57.422Z,0.51
2023-05-24T02:58:57.416Z,0.50
2023-05-24T02:59:57.415Z,0.52
2023-05-24T03:00:57.422Z,0.50
2023-05-24T03:01:57.427Z,0.51
2023-05-24T03:02:57.477Z,0.52
2023-05-24T03:03:57.466Z,0.50
2023-05-24T03:04:57.388Z,0.51
2023-05-24T03:05:57.377Z,0.51
2023-05-24T03:06:57.357Z,0.51
2023-05-24T03:07:57.364Z,0.51
2023-05-24T03:08:57.346Z,0.50
2023-05-24T03:09:57.349Z,0.51
2023-05-24T03:10:57.347Z,0.51
2023-05-24T03:11:57.332Z,0.50
2023-05-24T03:12:57.329Z,0.51
2023-05-24T03:13:57.327Z,0.51
2023-05-24T03:14:57.310Z,0.51
2023-05-24T03:15:57.354Z,0.50
2023-05-24T03:16:57.304Z,0.51
2023-05-24T03:17:57.344Z,0.51
2023-05-24T03:18:57.278Z,0.51
2023-05-24T03:19:57.300Z,0.52
2023-05-24T03:20:57.273Z,0.51
2023-05-24T03:21:57.267Z,0.51
2023-05-24T03:22:57.261Z,0.51
2023-05-24T03:23:57.266Z,0.52
2023-05-24T03:24:57.252Z,0.51
2023-05-24T03:25:57.258Z,0.51
2023-05-24T03:26:57.252Z,0.52
2023-05-24T03:27:57.256Z,0.50
2023-05-24T03:28:57.230Z,0.52
2023-05-24T03:29:57.222Z,0.51
2023-05-24T03:30:57.229Z,0.51
2023-05-24T03:31:57.318Z,0.51
2023-05-24T03:32:57.255Z,0.52
2023-05-24T03:33:57.200Z,0.52
2023-05-24T03:34:57.228Z,0.51
2023-05-24T03:35:57.194Z,0.52
2023-05-24T03:36:57.192Z,0.51
2023-05-24T03:37:57.212Z,0.51
2023-05-24T03:38:57.168Z,0.50
2023-05-24T03:39:57.157Z,0.50
2023-05-24T03:40:57.150Z,0.50
2023-05-24T03:41:57.151Z,0.51
2023-05-24T03:42:57.135Z,0.51
2023-05-24T03:43:57.128Z,0.51
2023-05-24T03:44:57.113Z,0.51
2023-05-24T03:45:57.170Z,0.51
2023-05-24T03:46:57.100Z,0.51
2023-05-24T03:47:57.136Z,0.51
2023-05-24T03:48:57.102Z,0.51
2023-05-24T03:49:57.095Z,0.51
2023-05-24T03:50:57.088Z,0.50
2023-05-24T03:51:57.071Z,0.52
2023-05-24T03:52:57.074Z,0.52
2023-05-24T03:53:57.057Z,0.51
2023-05-24T03:54:57.061Z,0.51
2023-05-24T03:55:57.036Z,0.51
2023-05-24T03:56:57.043Z,0.51
2023-05-24T03:57:57.036Z,0.51
2023-05-24T03:58:57.058Z,0.51
2023-05-24T03:59:57.011Z,0.51
2023-05-24T04:00:57.016Z,0.52
2023-05-24T04:01:57.065Z,0.51
2023-05-24T04:02:57.025Z,0.51
2023-05-24T04:03:57.034Z,0.51
2023-05-24T04:04:56.981Z,0.51
2023-05-24T04:05:56.971Z,0.51
2023-05-24T04:06:56.987Z,0.51
2023-05-24T04:07:56.970Z,0.51
2023-05-24T04:08:56.949Z,0.52
2023-05-24T04:09:56.941Z,0.51
2023-05-24T04:10:56.940Z,0.51
2023-05-24T04:11:56.957Z,0.51
2023-05-24T04:12:56.951Z,0.50
2023-05-24T04:13:56.922Z,0.50
2023-05-24T04:14:56.917Z,0.51
2023-05-24T04:15:56.907Z,0.52
2023-05-24T04:16:56.967Z,0.51
2023-05-24T04:17:57.000Z,0.51
2023-05-24T04:18:56.936Z,0.52
2023-05-24T04:19:56.918Z,0.52
2023-05-24T04:20:56.879Z,0.51
2023-05-24T04:21:56.870Z,0.51
2023-05-24T04:22:56.845Z,0.51
2023-05-24T04:23:56.844Z,0.51
2023-05-24T04:24:56.922Z,0.51
2023-05-24T04:25:56.849Z,0.51
2023-05-24T04:26:56.832Z,0.52
2023-05-24T04:27:56.817Z,0.51
2023-05-24T04:28:56.828Z,0.51
2023-05-24T04:29:56.808Z,0.51
2023-05-24T04:30:56.920Z,0.51
2023-05-24T04:31:56.802Z,0.51
2023-05-24T04:32:56.812Z,0.50
2023-05-24T04:33:56.789Z,0.51
2023-05-24T04:34:56.798Z,0.51
2023-05-24T04:35:56.765Z,0.51
2023-05-24T04:36:56.774Z,0.50
2023-05-24T04:37:56.752Z,0.51
2023-05-24T04:38:56.738Z,0.51
2023-05-24T04:39:56.732Z,0.51
2023-05-24T04:40:56.742Z,0.51
2023-05-24T04:41:56.726Z,0.51
2023-05-24T04:42:56.725Z,0.51
2023-05-24T04:43:56.721Z,0.51
2023-05-24T04:44:56.705Z,0.51
2023-05-24T04:45:56.689Z,0.51
2023-05-24T04:46:56.713Z,0.51
2023-05-24T04:47:56.756Z,0.50
2023-05-24T04:48:56.676Z,0.51
2023-05-24T04:49:56.685Z,0.51
2023-05-24T04:50:56.658Z,0.50
2023-05-24T04:51:56.662Z,0.52
2023-05-24T04:52:56.648Z,0.51
2023-05-24T04:53:56.659Z,0.52
2023-05-24T04:54:56.628Z,0.50
2023-05-24T04:55:56.622Z,0.51
2023-05-24T04:56:56.647Z,0.51
2023-05-24T04:57:56.614Z,0.51
2023-05-24T04:58:56.622Z,0.51
2023-05-24T04:59:56.629Z,0.52
2023-05-24T05:00:56.601Z,0.51
2023-05-24T05:01:56.626Z,0.51
2023-05-24T05:02:56.633Z,0.51
2023-05-24T05:03:56.619Z,0.51
2023-05-24T05:04:56.574Z,0.51
2023-05-24T05:05:56.586Z,0.50
2023-05-24T05:06:56.569Z,0.51
2023-05-24T05:07:56.559Z,0.51
2023-05-24T05:08:56.550Z,0.51
2023-05-24T05:09:56.565Z,0.50
2023-05-24T05:10:56.539Z,0.50
2023-05-24T05:11:56.536Z,0.51
2023-05-24T05:12:56.543Z,0.51
2023-05-24T05:13:56.531Z,0.50
2023-05-24T05:14:56.520Z,0.51
2023-05-24T05:15:56.505Z,0.51
2023-05-24T05:16:56.631Z,0.51
2023-05-24T05:17:56.494Z,0.51
2023-05-24T05:18:56.481Z,0.51
2023-05-24T05:19:56.497Z,0.52
2023-05-24T05:20:56.475Z,0.51
2023-05-24T05:21:56.470Z,0.51
2023-05-24T05:22:56.462Z,0.50
2023-05-24T05:23:56.453Z,0.51
2023-05-24T05:24:56.461Z,0.51
2023-05-24T05:25:56.448Z,0.51
2023-05-24T05:26:56.464Z,0.52
2023-05-24T05:27:56.435Z,0.50
2023-05-24T05:28:56.433Z,0.51
2023-05-24T05:29:56.436Z,0.51
2023-05-24T05:30:56.440Z,0.51
2023-05-24T05:31:56.488Z,0.51
2023-05-24T05:32:56.665Z,0.51
2023-05-24T05:33:56.492Z,0.51
2023-05-24T05:34:56.482Z,0.52
2023-05-24T05:35:56.796Z,0.52
2023-05-24T05:36:56.536Z,0.52
2023-05-24T05:37:56.504Z,0.54
2023-05-24T05:38:56.554Z,0.56
2023-05-24T05:39:56.523Z,0.54
2023-05-24T05:40:56.523Z,0.53
2023-05-24T05:41:56.516Z,0.51
2023-05-24T05:42:56.554Z,0.50
2023-05-24T05:43:56.510Z,0.50
2023-05-24T05:44:56.490Z,0.50
2023-05-24T05:45:56.492Z,0.50
2023-05-24T05:46:56.498Z,0.51
2023-05-24T05:47:56.555Z,0.51
2023-05-24T05:48:56.505Z,0.50
2023-05-24T05:49:56.499Z,0.51
2023-05-24T05:50:56.522Z,0.51
2023-05-24T05:51:56.516Z,0.50
2023-05-24T05:52:56.510Z,0.52
2023-05-24T05:53:56.590Z,0.51
2023-05-24T05:54:56.584Z,0.52
2023-05-24T05:55:56.612Z,0.50
2023-05-24T05:56:56.525Z,0.50
2023-05-24T05:57:56.715Z,0.50
2023-05-24T05:58:56.604Z,0.50
2023-05-24T05:59:56.531Z,0.51
2023-05-24T06:00:56.531Z,0.51
2023-05-24T06:01:56.524Z,0.52
2023-05-24T06:02:56.585Z,0.51
2023-05-24T06:03:56.708Z,0.50
2023-05-24T06:04:56.630Z,0.51
2023-05-24T06:05:56.555Z,0.52
2023-05-24T06:06:56.567Z,0.52
2023-05-24T06:07:56.589Z,0.51
2023-05-24T06:08:56.602Z,0.51
2023-05-24T06:09:56.666Z,0.51
2023-05-24T06:10:56.634Z,0.51
2023-05-24T06:11:56.641Z,0.51
2023-05-24T06:12:56.663Z,0.50
2023-05-24T06:13:56.685Z,0.51
2023-05-24T06:14:56.652Z,0.50
2023-05-24T06:15:56.685Z,0.51
2023-05-24T06:16:58.028Z,0.50
2023-05-24T06:17:56.698Z,0.52
2023-05-24T06:19:05.207Z,0.51
2023-05-24T06:19:57.677Z,0.51
2023-05-24T06:20:56.694Z,0.51
2023-05-24T06:21:56.649Z,0.51
2023-05-24T06:22:56.623Z,0.50
2023-05-24T06:23:56.726Z,0.50
2023-05-24T06:24:56.653Z,0.51
2023-05-24T06:25:57.319Z,0.51
2023-05-24T06:26:56.631Z,0.50
2023-05-24T06:27:56.613Z,0.51
2023-05-24T06:28:56.745Z,0.51
2023-05-24T06:29:56.695Z,0.51
2023-05-24T06:30:56.663Z,0.50
2023-05-24T06:31:56.636Z,0.51
2023-05-24T06:32:56.624Z,0.50
2023-05-24T06:34:56.568Z,0.50
2023-05-24T06:35:56.577Z,0.51
2023-05-24T06:36:56.613Z,0.53
2023-05-24T06:37:56.547Z,0.60
2023-05-24T06:38:56.554Z,0.65
2023-05-24T06:39:56.593Z,0.68
2023-05-24T06:40:56.522Z,0.69
2023-05-24T06:41:56.515Z,0.68
2023-05-24T06:42:56.507Z,0.72
2023-05-24T06:43:56.515Z,0.74
2023-05-24T06:44:57.302Z,0.77
2023-05-24T06:45:56.824Z,0.79
2023-05-24T06:46:56.599Z,0.80
2023-05-24T06:47:56.559Z,0.82
2023-05-24T06:48:56.625Z,0.85
2023-05-24T06:49:56.468Z,0.86
2023-05-24T06:50:56.476Z,0.87
2023-05-24T06:51:56.861Z,0.85
2023-05-24T06:52:56.447Z,0.87
2023-05-24T06:53:56.434Z,0.89
2023-05-24T06:54:56.493Z,0.89
2023-05-24T06:55:57.684Z,0.89
2023-05-24T06:56:56.445Z,0.89
2023-05-24T06:57:56.435Z,0.88
2023-05-24T06:58:56.410Z,0.90
2023-05-24T06:59:56.422Z,0.89
2023-05-24T07:00:56.472Z,0.87
2023-05-24T07:01:56.417Z,0.85
2023-05-24T07:02:56.439Z,0.81
2023-05-24T07:03:56.391Z,0.76
2023-05-24T07:04:56.479Z,0.71
2023-05-24T07:05:56.374Z,0.63
2023-05-24T07:06:56.349Z,0.59
2023-05-24T07:07:56.350Z,0.63
2023-05-24T07:08:56.388Z,0.65
2023-05-24T07:09:56.351Z,0.63
2023-05-24T07:10:56.350Z,0.64
2023-05-24T07:11:56.368Z,0.65
2023-05-24T07:12:56.316Z,0.68
2023-05-24T07:13:56.320Z,0.67
2023-05-24T07:14:56.299Z,0.68
2023-05-24T07:15:56.310Z,0.72
2023-05-24T07:16:56.350Z,0.73
2023-05-24T07:17:56.436Z,0.74
2023-05-24T07:18:56.418Z,0.75
2023-05-24T07:19:56.396Z,0.76
2023-05-24T07:20:56.425Z,0.77
2023-05-24T07:21:56.433Z,0.75
2023-05-24T07:22:56.507Z,0.78
2023-05-24T07:23:56.486Z,0.79
2023-05-24T07:24:56.522Z,0.77
2023-05-24T07:25:56.512Z,0.77
2023-05-24T07:26:56.544Z,0.75
2023-05-24T07:27:56.519Z,0.73
2023-05-24T07:28:56.557Z,0.65
2023-05-24T07:29:56.558Z,0.68
2023-05-24T07:30:56.580Z,0.66
2023-05-24T07:31:56.780Z,0.68
2023-05-24T07:32:56.938Z,0.72
2023-05-24T07:33:56.639Z,0.70
2023-05-24T07:34:56.673Z,0.70
2023-05-24T07:35:56.630Z,0.72
2023-05-24T07:36:56.813Z,0.74
2023-05-24T07:37:56.629Z,0.70
2023-05-24T07:38:56.653Z,0.59
2023-05-24T07:39:56.614Z,0.53
2023-05-24T07:40:56.666Z,0.53
2023-05-24T07:41:56.669Z,0.55
2023-05-24T07:42:56.695Z,0.55
2023-05-24T07:43:56.679Z,0.59
2023-05-24T07:44:56.692Z,0.65
2023-05-24T07:45:56.742Z,0.66
2023-05-24T07:46:56.841Z,0.70
2023-05-24T07:47:57.048Z,0.73
2023-05-24T07:48:56.837Z,0.75
2023-05-24T07:49:56.727Z,0.76
2023-05-24T07:50:56.722Z,0.78
2023-05-24T07:51:56.759Z,0.80
2023-05-24T07:52:56.810Z,0.83
2023-05-24T07:53:56.901Z,0.86
2023-05-24T07:54:56.936Z,0.86
2023-05-24T07:55:56.973Z,0.88
2023-05-24T07:56:57.027Z,0.89
2023-05-24T07:57:57.090Z,0.90
2023-05-24T07:58:57.110Z,0.91
2023-05-24T07:59:57.144Z,0.93
2023-05-24T08:00:57.179Z,0.96
2023-05-24T08:01:57.253Z,0.96
2023-05-24T08:02:57.382Z,0.98
2023-05-24T08:03:57.503Z,1.01
2023-05-24T08:04:57.391Z,1.01
2023-05-24T08:05:57.462Z,1.00
2023-05-24T08:06:57.554Z,1.02
2023-05-24T08:07:57.602Z,1.03
2023-05-24T08:08:57.669Z,1.03
2023-05-24T08:09:57.704Z,1.02
2023-05-24T08:10:57.783Z,1.03
2023-05-24T08:11:57.825Z,1.02
2023-05-24T08:12:57.951Z,1.04
2023-05-24T08:13:57.959Z,1.03
2023-05-24T08:14:58.017Z,1.04
2023-05-24T08:15:58.098Z,1.04
2023-05-24T08:16:58.157Z,1.02
2023-05-24T08:17:58.297Z,1.02
2023-05-24T08:18:58.308Z,1.01
2023-05-24T08:19:58.542Z,1.01
2023-05-24T08:20:58.417Z,1.00
2023-05-24T08:21:58.501Z,1.01
2023-05-24T08:22:58.536Z,1.01
2023-05-24T08:23:58.662Z,1.01
2023-05-24T08:24:58.682Z,1.02
2023-05-24T08:25:58.823Z,1.01
2023-05-24T08:26:58.771Z,1.03
2023-05-24T08:27:58.844Z,1.02
2023-05-24T08:28:58.847Z,1.05
2023-05-24T08:29:58.889Z,1.04
2023-05-24T08:30:58.928Z,1.04
2023-05-24T08:31:59.443Z,1.05
2023-05-24T08:32:59.109Z,1.05
2023-05-24T08:33:59.087Z,1.05
2023-05-24T08:35:10.629Z,1.06
2023-05-24T08:36:00.260Z,1.06
2023-05-24T08:36:59.076Z,1.04
2023-05-24T08:37:59.065Z,1.01
2023-05-24T08:38:59.058Z,1.05
2023-05-24T08:39:59.053Z,0.98
2023-05-24T08:40:59.056Z,0.97
2023-05-24T08:42:08.808Z,0.98
2023-05-24T08:43:00.061Z,0.98
2023-05-24T08:43:59.028Z,0.98
2023-05-24T08:44:59.026Z,0.98
2023-05-24T08:45:59.366Z,0.99
2023-05-24T08:46:59.369Z,1.04
2023-05-24T08:47:59.083Z,1.06
2023-05-24T08:48:59.069Z,1.08
2023-05-24T08:49:59.007Z,1.11
2023-05-24T08:50:58.998Z,1.17
2023-05-24T08:51:59.371Z,1.21
2023-05-24T08:52:58.997Z,1.23
2023-05-24T08:53:58.997Z,1.27
2023-05-24T08:54:58.978Z,1.29
2023-05-24T08:55:59.366Z,1.34
2023-05-24T08:56:58.956Z,1.39
2023-05-24T08:57:59.075Z,1.42
2023-05-24T08:58:59.074Z,1.50
2023-05-24T08:59:59.178Z,1.54
2023-05-24T09:00:59.230Z,1.56
2023-05-24T09:01:59.257Z,1.64
2023-05-24T09:02:59.341Z,1.66
2023-05-24T09:03:59.404Z,1.71
2023-05-24T09:04:59.460Z,1.74
2023-05-24T09:05:59.532Z,1.81
2023-05-24T09:06:59.497Z,1.87
2023-05-24T09:07:59.575Z,2.07
2023-05-24T09:08:59.653Z,2.11
2023-05-24T09:09:59.665Z,2.09
2023-05-24T09:11:00.023Z,2.10
2023-05-24T09:11:59.741Z,2.01
2023-05-24T09:12:59.817Z,2.03
2023-05-24T09:13:59.828Z,2.10
2023-05-24T09:14:59.857Z,2.01
2023-05-24T09:15:59.992Z,2.16
2023-05-24T09:16:59.950Z,2.11
2023-05-24T09:18:00.042Z,2.22
2023-05-24T09:19:00.027Z,2.22
2023-05-24T09:20:00.189Z,2.24
2023-05-24T09:21:00.133Z,2.30
2023-05-24T09:22:00.178Z,2.19
2023-05-24T09:23:00.179Z,2.25
2023-05-24T09:24:00.316Z,2.27
2023-05-24T09:25:00.272Z,2.22
2023-05-24T09:26:00.311Z,2.18
2023-05-24T09:27:00.381Z,2.17
2023-05-24T09:28:00.354Z,2.17
2023-05-24T09:29:00.387Z,2.14
2023-05-24T09:30:00.446Z,2.01
2023-05-24T09:31:00.547Z,1.97
2023-05-24T09:32:00.610Z,1.94
2023-05-24T09:33:00.779Z,1.93
2023-05-24T09:34:00.605Z,1.71
2023-05-24T09:35:00.634Z,1.62
2023-05-24T09:36:00.641Z,1.49
2023-05-24T09:37:00.875Z,1.39
2023-05-24T09:38:00.848Z,1.24
2023-05-24T09:39:00.776Z,1.10
2023-05-24T09:40:00.927Z,1.15
2023-05-24T09:41:00.844Z,1.09
2023-05-24T09:42:01.394Z,1.03
2023-05-24T09:43:00.976Z,1.06
2023-05-24T09:44:00.963Z,1.13
2023-05-24T09:45:01.000Z,1.11
2023-05-24T09:46:01.039Z,1.12
2023-05-24T09:47:01.138Z,1.08
2023-05-24T09:48:01.181Z,0.97
2023-05-24T09:49:01.187Z,0.89
2023-05-24T09:50:01.276Z,0.89
2023-05-24T09:51:01.284Z,0.94
2023-05-24T09:52:01.994Z,0.87
2023-05-24T09:53:01.391Z,0.85
2023-05-24T09:54:01.446Z,0.69
2023-05-24T09:55:01.505Z,0.67
2023-05-24T09:56:01.833Z,0.64
2023-05-24T09:57:03.522Z,0.55
2023-05-24T09:58:01.599Z,0.53
2023-05-24T09:59:01.632Z,0.51
2023-05-24T10:00:01.654Z,0.51
2023-05-24T10:01:01.614Z,0.50
2023-05-24T10:02:01.569Z,0.51
2023-05-24T10:03:01.676Z,0.51
2023-05-24T10:04:01.641Z,0.49
2023-05-24T10:05:01.700Z,0.50
2023-05-24T10:06:01.544Z,0.53
2023-05-24T10:07:01.532Z,0.57
2023-05-24T10:08:01.574Z,0.54
2023-05-24T10:09:01.540Z,0.52
2023-05-24T10:10:01.640Z,0.50
2023-05-24T10:11:01.551Z,0.50
2023-05-24T10:12:01.610Z,0.53
2023-05-24T10:13:01.544Z,0.50
2023-05-24T10:14:01.511Z,0.55
2023-05-24T10:15:01.530Z,0.54
2023-05-24T10:16:01.485Z,0.50
2023-05-24T10:17:01.549Z,0.55
2023-05-24T10:18:01.628Z,0.51
2023-05-24T10:19:01.468Z,0.50
2023-05-24T10:20:01.494Z,0.52
2023-05-24T10:21:01.647Z,0.58
2023-05-24T10:22:01.458Z,0.53
2023-05-24T10:23:01.558Z,0.52
2023-05-24T10:24:01.449Z,0.54
2023-05-24T10:25:01.425Z,0.53
2023-05-24T10:26:01.417Z,0.50
2023-05-24T10:27:01.400Z,0.55
2023-05-24T10:28:01.416Z,0.52
2023-05-24T10:29:01.386Z,0.52
2023-05-24T10:30:01.382Z,0.58
2023-05-24T10:31:01.527Z,0.57
2023-05-24T10:32:01.392Z,0.59
2023-05-24T10:33:01.451Z,0.59
2023-05-24T10:34:07.045Z,0.61
2023-05-24T10:35:02.377Z,0.61
2023-05-24T10:36:01.351Z,0.62
2023-05-24T10:37:01.399Z,0.64
2023-05-24T10:38:01.343Z,0.68
2023-05-24T10:39:01.332Z,0.78
2023-05-24T10:40:01.358Z,0.84
2023-05-24T10:41:01.380Z,0.89
2023-05-24T10:42:01.341Z,0.92
2023-05-24T10:43:01.322Z,0.97
2023-05-24T10:44:09.673Z,1.04
2023-05-24T10:45:02.337Z,1.05
2023-05-24T10:46:01.368Z,1.06
2023-05-24T10:47:01.293Z,1.10
2023-05-24T10:48:01.264Z,1.18
2023-05-24T10:49:01.254Z,1.33
2023-05-24T10:50:01.317Z,1.38
2023-05-24T10:51:01.282Z,1.43
2023-05-24T10:52:01.243Z,1.47
2023-05-24T10:53:01.293Z,1.56
2023-05-24T10:54:01.390Z,1.60
2023-05-24T10:55:04.251Z,1.63
2023-05-24T10:56:01.436Z,1.66
2023-05-24T10:57:01.406Z,1.66
2023-05-24T10:58:01.897Z,1.71
2023-05-24T10:59:01.383Z,1.71
2023-05-24T11:00:01.393Z,1.79
2023-05-24T11:01:01.401Z,1.84
2023-05-24T11:02:01.407Z,1.92
2023-05-24T11:03:01.486Z,1.95
2023-05-24T11:04:01.391Z,1.98
2023-05-24T11:05:01.365Z,2.00
2023-05-24T11:06:01.430Z,2.07
2023-05-24T11:07:01.348Z,2.09
2023-05-24T11:08:01.330Z,2.18
2023-05-24T11:09:01.306Z,2.22
2023-05-24T11:10:01.366Z,2.29
2023-05-24T11:11:11.515Z,2.34
2023-05-24T11:12:02.377Z,2.34
2023-05-24T11:13:01.324Z,2.37
2023-05-24T11:14:01.337Z,2.41
2023-05-24T11:15:01.313Z,2.50
2023-05-24T11:16:01.440Z,2.61
2023-05-24T11:17:01.298Z,2.71
2023-05-24T11:18:01.375Z,2.70
2023-05-24T11:19:01.266Z,2.66
2023-05-24T11:20:01.440Z,2.70
2023-05-24T11:21:01.480Z,2.77
2023-05-24T11:41:45.583Z,0.50
2023-05-24T11:42:45.586Z,0.50
2023-05-24T11:43:45.559Z,0.50
2023-05-24T11:44:45.535Z,0.50
2023-05-24T11:45:45.583Z,0.50
2023-05-24T11:54:39.306Z,0.50
2023-05-24T11:55:39.332Z,0.50
2023-05-24T11:56:39.391Z,0.50
2023-05-24T11:57:39.292Z,0.50
2023-05-24T11:58:39.280Z,0.50
2023-05-24T11:59:39.291Z,0.50
2023-05-24T12:00:39.338Z,0.50
2023-05-24T12:01:39.282Z,0.50
2023-05-24T12:02:39.416Z,0.51
2023-05-24T12:03:39.401Z,0.50
2023-05-24T12:04:39.296Z,0.50
2023-05-24T12:05:39.249Z,0.50
2023-05-24T12:06:39.265Z,0.50
2023-05-24T12:07:39.234Z,0.50
2023-05-24T12:08:39.228Z,0.51
2023-05-24T12:09:39.220Z,0.51
2023-05-24T12:10:39.213Z,0.51
2023-05-24T12:11:39.209Z,0.51
2023-05-24T12:12:45.656Z,0.50
2023-05-24T12:13:40.204Z,0.50
2023-05-24T12:14:39.194Z,0.51
2023-05-24T12:15:39.216Z,0.49
2023-05-24T12:16:39.271Z,0.48
2023-05-24T12:17:39.270Z,0.48
2023-05-24T12:18:45.830Z,0.50
2023-05-24T12:19:40.170Z,0.50
2023-05-24T12:20:39.291Z,0.50
2023-05-24T12:21:39.151Z,0.50
2023-05-24T12:22:39.152Z,0.49
2023-05-24T12:23:39.137Z,0.48
2023-05-24T12:24:39.130Z,0.51
2023-05-24T12:25:39.174Z,0.51
2023-05-24T12:26:39.115Z,0.51
2023-05-24T12:27:39.115Z,0.51
2023-05-24T12:28:39.107Z,0.51
2023-05-24T12:29:39.119Z,0.51
2023-05-24T12:30:39.089Z,0.51
2023-05-24T12:31:39.141Z,0.50
2023-05-24T12:32:39.111Z,0.50
2023-05-24T12:33:39.074Z,0.52
2023-05-24T12:34:39.058Z,0.52
2023-05-24T12:35:39.058Z,0.52
2023-05-24T12:36:39.069Z,0.51
2023-05-24T12:37:39.049Z,0.51
2023-05-24T12:38:39.030Z,0.50
2023-05-24T12:39:39.025Z,0.51
2023-05-24T12:40:39.026Z,0.50
2023-05-24T12:41:39.021Z,0.51
2023-05-24T12:42:38.999Z,0.51
2023-05-24T12:43:38.994Z,0.50
2023-05-24T12:44:39.027Z,0.50
2023-05-24T12:45:39.058Z,0.52
2023-05-24T12:46:39.119Z,0.51
2023-05-24T12:47:39.101Z,0.50
2023-05-24T12:48:39.100Z,0.51
2023-05-24T12:49:39.144Z,0.52
2023-05-24T12:50:39.146Z,0.52
2023-05-24T12:51:39.226Z,0.51
2023-05-24T12:52:39.210Z,0.51
2023-05-24T12:53:39.225Z,0.51
2023-05-24T12:54:39.269Z,0.51
2023-05-24T12:55:39.296Z,0.51
2023-05-24T12:56:39.294Z,0.51
2023-05-24T12:57:39.333Z,0.51
2023-05-24T12:58:39.404Z,0.52
2023-05-24T12:59:39.393Z,0.52
2023-05-24T13:00:39.479Z,0.52
2023-05-24T13:01:39.551Z,0.52
2023-05-24T13:02:40.159Z,0.51
2023-05-24T13:03:39.527Z,0.51
2023-05-24T13:04:39.555Z,0.50
2023-05-24T13:05:39.689Z,0.51
2023-05-24T13:06:39.604Z,0.51
2023-05-24T13:07:39.685Z,0.51
2023-05-24T13:08:40.998Z,0.52
2023-05-24T13:09:39.727Z,0.52
2023-05-24T13:10:39.766Z,0.52
2023-05-24T13:11:39.773Z,0.51
2023-05-24T13:12:39.795Z,0.52
2023-05-24T13:13:39.839Z,0.51
2023-05-24T13:14:39.874Z,0.52
2023-05-24T13:15:39.910Z,0.51
2023-05-24T13:16:40.013Z,0.51
2023-05-24T13:17:40.028Z,0.51
2023-05-24T13:18:39.984Z,0.51
2023-05-24T13:19:40.024Z,0.50
2023-05-24T13:20:40.175Z,0.50
2023-05-24T13:21:40.170Z,0.51
2023-05-24T13:22:40.129Z,0.51
2023-05-24T13:23:40.156Z,0.50
2023-05-24T13:24:40.198Z,0.50
2023-05-24T13:25:40.229Z,0.50
2023-05-24T13:26:40.268Z,0.50
2023-05-24T13:27:40.337Z,0.50
2023-05-24T13:28:51.798Z,0.50
2023-05-24T13:29:52.672Z,0.50
2023-05-24T13:30:41.441Z,0.50
2023-05-24T13:31:40.538Z,0.51
2023-05-24T13:32:41.257Z,0.46
2023-05-24T13:33:40.308Z,0.45
2023-05-24T13:34:40.293Z,0.43
2023-05-24T13:35:40.293Z,0.50
2023-05-24T13:36:40.277Z,0.50
2023-05-24T13:37:40.284Z,0.50
2023-05-24T13:38:40.271Z,0.51
2023-05-24T13:39:40.299Z,0.50
2023-05-24T13:40:41.852Z,0.50
2023-05-24T13:41:40.439Z,0.50
2023-05-24T13:42:40.358Z,0.50
2023-05-24T13:43:40.259Z,0.51
2023-05-24T13:44:40.232Z,0.51
2023-05-24T13:45:40.231Z,0.52
2023-05-24T13:46:40.318Z,0.52
2023-05-24T13:47:41.010Z,0.54
2023-05-24T13:48:40.240Z,0.59
2023-05-24T13:49:40.207Z,0.63
2023-05-24T13:50:40.275Z,0.68
2023-05-24T13:51:40.335Z,0.64
2023-05-24T13:52:40.215Z,0.66
2023-05-24T13:53:40.192Z,0.64
2023-05-24T13:54:40.172Z,0.62
2023-05-24T13:55:40.174Z,0.62
2023-05-24T13:56:40.196Z,0.61
2023-05-24T13:57:51.012Z,0.62
2023-05-24T13:58:41.227Z,0.62
2023-05-24T13:59:40.245Z,0.62
2023-05-24T14:00:40.246Z,0.63
2023-05-24T14:01:41.116Z,0.63
2023-05-24T14:02:41.718Z,0.64
2023-05-24T14:03:40.238Z,0.65
2023-05-24T14:04:40.242Z,0.65
2023-05-24T14:05:40.348Z,0.64
2023-05-24T14:06:40.176Z,0.65